Time;durP1;ratioP1;P1;durP2;ratioP2;P2;SDS_P1;SDS_P2;PMS_P1;PMS_P2;Temp;Humidity;BMP_temperature;BMP_pressure;BME280_temperature;BME280_humidity;BME280_pressure;Samples;Min_cycle;Max_cycle;Signal;HPM_P1;HPM_P2
2022/12/19 00:01:43;;;;;;;99.40;35.03;;;;;;;-6.60;81.09;102745.95;1666085;83;21328;-75
2022/12/19 00:04:28;;;;;;;98.17;33.78;;;;;;;-6.60;81.15;102750.61;1665112;83;20972;-75
2022/12/19 00:07:13;;;;;;;92.23;33.53;;;;;;;-6.60;81.17;102738.41;1665984;83;20925;-75
2022/12/19 00:09:58;;;;;;;91.43;33.93;;;;;;;-6.58;81.13;102723.07;1666213;83;20932;-75
2022/12/19 00:12:43;;;;;;;85.62;32.00;;;;;;;-6.58;81.15;102718.04;1665433;83;20960;-76
2022/12/19 00:15:27;;;;;;;;;;;;;;;-6.60;81.12;102720.42;1608704;83;5000688;-75
2022/12/19 00:18:12;;;;;;;90.38;33.83;;;;;;;-6.60;81.24;102708.22;1681907;83;20424;-75
2022/12/19 00:21:01;;;;;;;94.07;32.57;;;;;;;-6.59;81.18;102699.55;1683549;83;21417;-75
2022/12/19 00:23:47;;;;;;;93.95;33.50;;;;;;;-6.57;81.16;102694.64;1681675;83;20993;-75
2022/12/19 00:26:35;;;;;;;97.27;35.15;;;;;;;-6.57;81.24;102687.98;1682716;83;20937;-76
2022/12/19 00:29:20;;;;;;;92.33;34.27;;;;;;;-6.56;81.13;102691.00;1686828;80;20973;-76
2022/12/19 00:32:05;;;;;;;82.30;32.00;;;;;;;-6.55;81.13;102684.34;1728583;80;20953;-75
2022/12/19 00:34:50;;;;;;;69.43;25.60;;;;;;;-6.56;81.13;102675.91;1729010;80;20953;-75
2022/12/19 00:37:35;;;;;;;87.12;32.45;;;;;;;-6.53;81.19;102672.77;1729313;80;21497;-75
2022/12/19 00:40:20;;;;;;;86.03;31.67;;;;;;;-6.52;81.16;102670.39;1726437;80;20990;-75
2022/12/19 00:43:05;;;;;;;83.03;31.13;;;;;;;-6.51;81.13;102673.41;1727939;80;20914;-76
2022/12/19 00:45:50;;;;;;;79.53;31.37;;;;;;;-6.51;81.11;102671.27;1729098;80;20968;-75
2022/12/19 00:48:35;;;;;;;79.80;30.20;;;;;;;-6.51;81.14;102681.33;1729300;80;20984;-75
2022/12/19 00:51:25;;;;;;;90.40;31.37;;;;;;;-6.50;81.14;102682.72;1729971;80;21480;-75
2022/12/19 00:54:10;;;;;;;85.65;29.75;;;;;;;-6.51;81.10;102677.19;1726537;80;21481;-76
2022/12/19 00:56:55;;;;;;;87.33;29.40;;;;;;;-6.51;81.10;102683.84;1727756;80;20937;-75
2022/12/19 00:59:40;;;;;;;80.03;29.25;;;;;;;-6.51;81.09;102680.95;1727144;80;20989;-76
2022/12/19 01:02:25;;;;;;;79.03;29.73;;;;;;;-6.51;81.04;102683.84;1729934;80;21366;-76
2022/12/19 01:05:10;;;;;;;76.07;29.90;;;;;;;-6.53;81.04;102686.23;1725908;80;21583;-74
2022/12/19 01:07:55;;;;;;;80.72;30.23;;;;;;;-6.55;81.04;102686.85;1722895;80;20917;-75
2022/12/19 01:10:50;;;;;;;71.57;29.02;;;;;;;-6.57;81.03;102680.81;1729986;80;37374;-75
2022/12/19 01:13:38;;;;;;;80.10;29.67;;;;;;;-6.58;80.98;102685.33;1727120;80;20941;-75
2022/12/19 01:16:22;;;;;;;71.72;27.67;;;;;;;-6.58;81.05;102682.81;1725742;80;21257;-76
2022/12/19 01:19:07;;;;;;;83.73;30.87;;;;;;;-6.56;81.09;102678.42;1727332;80;20938;-75
2022/12/19 01:21:52;;;;;;;82.95;28.83;;;;;;;-6.58;80.96;102669.86;1727459;80;20954;-75
2022/12/19 01:24:37;;;;;;;85.00;30.63;;;;;;;-6.59;81.00;102662.18;1730093;80;20949;-75
2022/12/19 01:27:22;;;;;;;84.05;28.98;;;;;;;-6.62;80.97;102652.73;1730705;80;20934;-76
2022/12/19 01:30:09;;;;;;;83.20;30.23;;;;;;;-6.64;80.96;102644.55;1728199;80;21451;-75
2022/12/19 01:32:55;;;;;;;72.65;29.02;;;;;;;-6.66;81.00;102646.94;1727083;80;21033;-75
2022/12/19 01:35:41;;;;;;;80.50;30.08;;;;;;;-6.64;81.05;102642.92;1726508;80;21422;-76
2022/12/19 01:38:26;;;;;;;76.77;29.80;;;;;;;-6.65;80.98;102639.02;1728582;80;21516;-76
2022/12/19 01:41:11;;;;;;;66.50;24.23;;;;;;;-6.68;80.96;102639.64;1727932;80;21418;-75
2022/12/19 01:44:06;;;;;;;83.15;28.90;;;;;;;-6.68;80.98;102627.94;1726506;80;20961;-75
2022/12/19 01:46:56;;;;;;;76.87;30.17;;;;;;;-6.69;80.96;102624.03;1730796;80;20953;-75
2022/12/19 01:49:41;;;;;;;78.42;30.20;;;;;;;-6.70;80.98;102630.70;1727956;80;20970;-75
2022/12/19 01:52:26;;;;;;;60.92;23.60;;;;;;;-6.71;80.99;102625.16;1725806;80;20913;-75
2022/12/19 01:55:12;;;;;;;79.32;31.15;;;;;;;-6.70;81.01;102615.98;1725833;80;21017;-75
2022/12/19 01:57:58;;;;;;;81.22;30.72;;;;;;;-6.70;81.01;102608.44;1725209;80;20914;-75
2022/12/19 02:00:44;;;;;;;78.05;29.90;;;;;;;-6.69;80.99;102612.72;1723634;80;21820;-74
2022/12/19 02:03:32;;;;;;;80.40;32.05;;;;;;;-6.70;80.97;102615.98;1722120;80;21414;-75
2022/12/19 02:06:18;;;;;;;75.10;30.70;;;;;;;-6.70;80.98;102614.72;1726036;80;20929;-75
2022/12/19 02:09:02;;;;;;;87.60;30.88;;;;;;;-6.70;80.98;102618.50;1727090;80;20941;-76
2022/12/19 02:11:47;;;;;;;91.25;33.28;;;;;;;-6.72;80.94;102604.53;1728614;80;21941;-76
2022/12/19 02:14:34;;;;;;;82.60;30.52;;;;;;;-6.71;80.95;102602.52;1725649;80;21260;-76
2022/12/19 02:17:30;;;;;;;85.20;32.55;;;;;;;-6.72;80.92;102593.21;1728462;80;21007;-76
2022/12/19 02:20:38;;;;;;;87.12;33.05;;;;;;;-6.75;80.90;102590.44;1725398;80;21565;-75
2022/12/19 02:23:36;;;;;;;85.70;31.87;;;;;;;-6.76;80.92;102583.64;1725115;80;20925;-76
2022/12/19 02:26:52;;;;;;;81.05;30.15;;;;;;;-6.78;80.91;102568.83;1729042;80;21540;-75
2022/12/19 02:30:02;;;;;;;84.13;32.13;;;;;;;-6.80;80.87;102561.53;1725833;80;21853;-75
2022/12/19 02:32:52;;;;;;;84.77;32.13;;;;;;;-6.83;80.87;102559.13;1727066;80;21826;-75
2022/12/19 02:35:56;;;;;;;93.62;33.67;;;;;;;-6.86;80.86;102555.09;1725762;80;20945;-75
2022/12/19 02:38:49;;;;;;;77.12;30.43;;;;;;;-6.88;80.88;102551.58;1724571;80;20946;-75
2022/12/19 02:41:44;;;;;;;84.07;32.75;;;;;;;-6.89;80.87;102549.81;1724037;80;20906;-76
2022/12/19 02:44:36;;;;;;;79.70;30.45;;;;;;;-6.89;80.87;102554.47;1725885;80;21496;-75
2022/12/19 02:47:22;;;;;;;79.07;29.80;;;;;;;-6.92;80.86;102557.97;1726150;80;20945;-76
2022/12/19 02:50:08;;;;;;;87.40;32.70;;;;;;;-6.93;80.87;102554.07;1724177;80;20977;-76
2022/12/19 02:52:53;;;;;;;90.07;33.40;;;;;;;-6.93;80.84;102554.07;1724939;80;20945;-76
2022/12/19 02:56:00;;;;;;;78.42;30.85;;;;;;;-6.95;80.86;102544.26;1725268;80;20925;-76
2022/12/19 02:58:56;;;;;;;89.42;31.85;;;;;;;-6.97;80.82;102537.84;1723662;80;20946;-75
2022/12/19 03:01:51;;;;;;;79.60;31.73;;;;;;;-6.98;80.84;102532.31;1724336;80;20914;-76
2022/12/19 03:04:53;;;;;;;87.57;31.37;;;;;;;-6.98;80.85;102530.17;1725237;80;20950;-76
2022/12/19 03:08:18;;;;;;;80.53;31.68;;;;;;;-6.98;80.89;102532.31;1725437;80;21399;-76
2022/12/19 03:11:12;;;;;;;75.92;29.65;;;;;;;-6.96;80.87;102529.92;1728963;80;20910;-76
2022/12/19 03:14:10;;;;;;;82.70;32.53;;;;;;;-6.99;80.80;102516.72;1723961;80;20925;-76
2022/12/19 03:16:55;;;;;;;84.10;31.02;;;;;;;-7.00;80.79;102517.47;1727497;80;20953;-76
2022/12/19 03:19:41;;;;;;;82.33;31.85;;;;;;;-6.99;80.84;102522.13;1726133;80;21475;-76
2022/12/19 03:22:26;;;;;;;78.72;31.42;;;;;;;-7.00;80.82;102516.21;1724747;80;21537;-76
2022/12/19 03:25:10;;;;;;;70.77;29.47;;;;;;;-6.98;80.83;102508.80;1727945;80;20955;-76
2022/12/19 03:28:00;;;;;;;71.10;28.07;;;;;;;-6.98;80.83;102500.88;1725637;80;20905;-76
2022/12/19 03:30:45;;;;;;;81.60;30.92;;;;;;;-6.99;80.80;102493.21;1724763;80;21524;-76
2022/12/19 03:33:32;;;;;;;75.30;29.50;;;;;;;-6.99;80.82;102492.83;1724833;80;20969;-76
2022/12/19 03:36:21;;;;;;;76.82;30.10;;;;;;;-6.98;80.79;102484.91;1724595;80;20945;-76
2022/12/19 03:39:09;;;;;;;64.47;26.97;;;;;;;-7.00;80.77;102474.73;1723134;80;20914;-76
2022/12/19 03:45:04;;;;;;;73.45;26.65;;;;;;;-6.98;80.79;102477.37;1724985;80;21540;-76
2022/12/19 03:47:54;;;;;;;75.83;28.12;;;;;;;-6.98;80.79;102492.08;1721427;80;20965;-75
2022/12/19 03:50:53;;;;;;;70.25;27.52;;;;;;;-6.98;80.79;102487.05;1727246;80;20901;-76
2022/12/19 03:54:00;;;;;;;68.95;25.72;;;;;;;-6.98;80.79;102484.91;1727642;79;21556;-76
2022/12/19 03:57:11;;;;;;;70.10;26.57;;;;;;;-6.97;80.82;102475.36;1725322;80;21295;-76
2022/12/19 04:00:01;;;;;;;78.07;27.45;;;;;;;-6.97;80.78;102459.91;1724786;80;20985;-76
2022/12/19 04:02:52;;;;;;;69.15;26.90;;;;;;;-6.97;80.78;102456.51;1724514;80;20913;-76
2022/12/19 04:05:39;;;;;;;72.27;28.85;;;;;;;-6.98;80.76;102452.23;1725704;80;20921;-76
2022/12/19 04:08:25;;;;;;;63.63;26.00;;;;;;;-6.96;80.81;102450.73;1725831;80;20906;-75
2022/12/19 04:11:13;;;;;;;;;;;;;;;-6.96;80.77;102444.06;1729477;80;20953;-75
2022/12/19 04:14:09;;;;;;;65.95;24.37;;;;;;;-6.96;80.77;102443.19;1723829;80;20112;-76
2022/12/19 04:17:28;;;;;;;76.33;25.57;;;;;;;-6.97;80.77;102438.53;1723649;80;20944;-76
2022/12/19 04:20:20;;;;;;;68.50;24.60;;;;;;;-6.95;80.81;102434.89;1724935;80;20906;-76
2022/12/19 04:23:19;;;;;;;69.22;25.00;;;;;;;-6.94;80.79;102433.76;1724327;80;21036;-75
2022/12/19 04:26:06;;;;;;;61.98;24.25;;;;;;;-6.92;80.81;102431.00;1726107;80;20985;-75
2022/12/19 04:28:55;;;;;;;57.88;24.02;;;;;;;-6.90;80.80;102419.81;1725052;80;20945;-75
2022/12/19 04:31:41;;;;;;;59.95;22.15;;;;;;;-6.88;80.80;102426.73;1725982;80;21300;-75
2022/12/19 04:34:26;;;;;;;;;;;;;;;-6.88;80.80;102417.05;1726023;80;21012;-76
2022/12/19 04:37:11;;;;;;;61.18;22.95;;;;;;;-6.85;80.81;102411.02;1724547;80;20112;-76
2022/12/19 04:39:55;;;;;;;62.98;22.75;;;;;;;-6.86;80.78;102409.25;1733021;79;20957;-76
2022/12/19 04:42:40;;;;;;;69.07;26.00;;;;;;;-6.85;80.79;102410.64;1725773;80;21024;-76
2022/12/19 04:45:25;;;;;;;62.85;24.50;;;;;;;-6.85;80.77;102405.98;1731887;79;21303;-76
2022/12/19 04:48:10;;;;;;;67.75;24.12;;;;;;;-6.84;80.79;102406.48;1726413;80;20922;-75
2022/12/19 04:50:56;;;;;;;55.40;19.62;;;;;;;-6.84;80.77;102407.74;1721775;80;436303;-76
2022/12/19 04:53:40;;;;;;;64.05;24.05;;;;;;;-6.82;80.76;102410.01;1726087;80;20953;-76
2022/12/19 04:56:25;;;;;;;49.93;19.23;;;;;;;-6.83;80.78;102396.93;1724541;80;20925;-76
2022/12/19 04:59:10;;;;;;;50.83;19.35;;;;;;;-6.83;80.79;102398.19;1727261;80;21173;-75
2022/12/19 05:01:55;;;;;;;59.80;24.37;;;;;;;-6.81;80.79;102399.20;1727704;80;20997;-76
2022/12/19 05:04:40;;;;;;;59.90;23.73;;;;;;;-6.81;80.80;102400.08;1726178;80;21045;-74
2022/12/19 05:07:25;;;;;;;58.80;22.77;;;;;;;-6.79;80.78;102408.63;1726396;80;20961;-74
2022/12/19 05:10:10;;;;;;;63.87;24.45;;;;;;;-6.78;80.82;102404.48;1729673;80;21712;-74
2022/12/19 05:12:55;;;;;;;68.78;25.12;;;;;;;-6.78;80.77;102396.55;1730242;80;20957;-73
2022/12/19 05:15:40;;;;;;;62.50;21.70;;;;;;;-6.78;80.78;102397.81;1726498;80;20978;-73
2022/12/19 05:18:25;;;;;;;60.65;23.18;;;;;;;-6.76;80.81;102397.52;1725883;80;20957;-74
2022/12/19 05:21:11;;;;;;;56.13;23.50;;;;;;;-6.74;80.80;102401.42;1728310;80;21512;-74
2022/12/19 05:23:56;;;;;;;63.48;23.62;;;;;;;-6.73;80.78;102400.67;1728014;80;22874;-74
2022/12/19 05:26:41;;;;;;;62.73;24.30;;;;;;;-6.73;80.79;102405.70;1725838;80;20942;-73
2022/12/19 05:29:26;;;;;;;58.00;22.55;;;;;;;-6.73;80.77;102397.78;1728546;80;20989;-76
2022/12/19 05:32:11;;;;;;;64.27;24.60;;;;;;;-6.73;80.78;102400.67;1732314;80;21029;-73
2022/12/19 05:34:56;;;;;;;56.90;22.10;;;;;;;-6.73;80.76;102394.00;1732370;80;20924;-74
2022/12/19 05:37:41;;;;;;;58.85;22.35;;;;;;;-6.73;80.79;102389.35;1697662;82;21352;-74
2022/12/19 05:40:26;;;;;;;60.92;22.15;;;;;;;-6.73;80.74;102384.32;1668202;83;21052;-74
2022/12/19 05:43:11;;;;;;;54.87;22.47;;;;;;;-6.75;80.74;102379.16;1668098;83;21525;-74
2022/12/19 05:45:56;;;;;;;58.17;21.37;;;;;;;-6.76;80.73;102376.15;1670438;83;20965;-74
2022/12/19 05:48:41;;;;;;;56.23;22.05;;;;;;;-6.77;80.77;102368.14;1667870;83;22085;-74
2022/12/19 05:51:26;;;;;;;54.20;21.93;;;;;;;-6.78;80.72;102361.34;1671070;83;21425;-73
2022/12/19 05:54:11;;;;;;;60.52;21.90;;;;;;;-6.76;80.75;102361.47;1668069;83;20986;-74
2022/12/19 05:56:56;;;;;;;49.48;19.60;;;;;;;-6.74;80.79;102356.16;1669315;83;20998;-73
2022/12/19 05:59:41;;;;;;;63.35;23.02;;;;;;;-6.73;80.79;102355.39;1668375;83;20981;-74
2022/12/19 06:02:26;;;;;;;64.05;23.22;;;;;;;-6.73;80.74;102361.69;1667215;83;20985;-74
2022/12/19 06:05:11;;;;;;;59.50;22.80;;;;;;;-6.75;80.75;102359.05;1667754;83;21324;-73
2022/12/19 06:07:56;;;;;;;62.23;22.07;;;;;;;-6.74;80.75;102356.16;1667560;83;21576;-74
2022/12/19 06:10:41;;;;;;;65.47;22.23;;;;;;;-6.73;80.78;102362.94;1668601;83;20941;-74
2022/12/19 06:13:27;;;;;;;49.18;19.85;;;;;;;-6.73;80.76;102360.05;1667292;83;21764;-73
2022/12/19 06:16:14;;;;;;;63.63;23.45;;;;;;;-6.74;80.73;102359.55;1664764;83;21336;-73
2022/12/19 06:18:59;;;;;;;55.65;21.45;;;;;;;-6.73;80.75;102361.30;1666439;83;21463;-73
2022/12/19 06:21:44;;;;;;;55.53;22.03;;;;;;;-6.73;80.75;102357.91;1667334;83;20939;-73
2022/12/19 06:24:29;;;;;;;62.70;22.47;;;;;;;-6.73;80.74;102349.98;1668664;83;21045;-73
2022/12/19 06:27:14;;;;;;;53.23;22.02;;;;;;;-6.74;80.75;102349.48;1666933;83;21025;-74
2022/12/19 06:29:59;;;;;;;59.90;22.53;;;;;;;-6.73;80.76;102356.28;1668021;83;20941;-74
2022/12/19 06:32:44;;;;;;;52.43;21.87;;;;;;;-6.74;80.69;102352.37;1666263;83;21066;-74
2022/12/19 06:35:29;;;;;;;60.88;22.93;;;;;;;-6.74;80.75;102357.41;1696079;82;20969;-74
2022/12/19 06:38:14;;;;;;;51.13;20.97;;;;;;;-6.74;80.75;102352.37;1667478;83;20913;-74
2022/12/19 06:44:05;;;;;;;57.38;21.73;;;;;;;-6.74;80.74;102355.77;1666698;83;20942;-74
2022/12/19 06:46:52;;;;;;;61.50;21.87;;;;;;;-6.76;80.70;102353.92;1665606;83;20942;-74
2022/12/19 06:49:37;;;;;;;64.27;23.92;;;;;;;-6.78;80.74;102335.31;1670143;83;21553;-73
2022/12/19 06:52:21;;;;;;;61.33;23.18;;;;;;;-6.75;80.78;102339.30;1666724;83;20981;-73
2022/12/19 06:55:08;;;;;;;63.23;22.83;;;;;;;-6.74;80.79;102337.29;1669522;82;20961;-73
2022/12/19 06:57:52;;;;;;;56.25;22.27;;;;;;;-6.73;80.80;102336.53;1669419;82;21198;-73
2022/12/19 07:00:37;;;;;;;69.17;23.13;;;;;;;-6.71;80.80;102331.25;1666035;83;21005;-74
2022/12/19 07:03:26;;;;;;;61.73;23.92;;;;;;;-6.73;80.82;102320.19;1665636;83;21657;-73
2022/12/19 07:06:11;;;;;;;54.83;21.00;;;;;;;-6.68;80.81;102313.52;1667513;82;21080;-73
2022/12/19 07:08:56;;;;;;;49.35;21.60;;;;;;;-6.64;80.82;102309.98;1666134;83;20934;-73
2022/12/19 07:11:41;;;;;;;57.83;22.43;;;;;;;-6.61;80.84;102306.45;1663870;83;21482;-74
2022/12/19 07:14:26;;;;;;;57.00;21.95;;;;;;;-6.59;80.82;102303.30;1665810;83;20926;-74
2022/12/19 07:17:12;;;;;;;44.20;17.70;;;;;;;-6.56;80.85;102301.03;1664436;83;21490;-74
2022/12/19 07:19:58;;;;;;;51.80;19.62;;;;;;;-6.51;80.87;102301.41;1665960;83;20957;-74
2022/12/19 07:22:44;;;;;;;56.28;22.22;;;;;;;-6.47;80.92;102295.48;1665333;83;24957;-74
2022/12/19 07:25:28;;;;;;;;;;;;;;;-6.42;80.87;102298.36;1666772;83;20980;-74
2022/12/19 07:28:14;;;;;;;43.35;18.82;;;;;;;-6.36;80.96;102289.66;1665030;83;20118;-74
2022/12/19 07:30:58;;;;;;;46.85;19.98;;;;;;;-6.26;80.98;102292.89;1666709;82;21525;-74
2022/12/19 07:33:43;;;;;;;56.13;21.87;;;;;;;-6.18;80.99;102294.34;1660883;83;21553;-74
2022/12/19 07:36:29;;;;;;;54.15;21.10;;;;;;;-6.11;80.99;102283.98;1664785;83;20949;-74
2022/12/19 07:39:13;;;;;;;56.57;21.77;;;;;;;-6.03;81.00;102282.94;1660135;83;20937;-74
2022/12/19 07:41:58;;;;;;;52.55;21.25;;;;;;;-5.96;80.98;102276.73;1664427;82;21806;-74
2022/12/19 07:44:43;;;;;;;46.80;21.43;;;;;;;-5.87;81.03;102286.22;1661730;83;20918;-74
2022/12/19 07:47:29;;;;;;;46.75;21.00;;;;;;;-5.78;81.04;102286.93;1664799;83;21329;-74
2022/12/19 07:50:14;;;;;;;56.65;20.37;;;;;;;-5.70;81.03;102285.45;1659690;83;21423;-74
2022/12/19 07:52:58;;;;;;;48.60;16.50;;;;;;;-5.62;81.05;102285.16;1662798;83;21470;-74
2022/12/19 07:55:44;;;;;;;60.15;20.50;;;;;;;-5.53;81.07;102284.59;1661947;83;20994;-76
2022/12/19 07:58:29;;;;;;;55.70;20.80;;;;;;;-5.43;81.11;102275.70;1659400;83;21025;-74
2022/12/19 08:01:14;;;;;;;;;;;;;;;-5.30;81.12;102280.90;1662991;83;20921;-74
2022/12/19 08:03:59;;;;;;;54.10;22.05;;;;;;;-5.20;81.12;102273.25;1703409;80;20193;-74
2022/12/19 08:06:45;;;;;;;51.67;21.07;;;;;;;-5.07;81.18;102261.13;1700408;81;21498;-74
2022/12/19 08:09:31;;;;;;;52.78;22.30;;;;;;;-4.94;81.14;102265.42;1704341;81;20929;-74
2022/12/19 08:12:15;;;;;;;62.93;21.35;;;;;;;-4.85;81.14;102279.97;1701570;81;20898;-74
2022/12/19 08:15:00;;;;;;;52.03;22.45;;;;;;;-4.77;81.13;102265.88;1705170;81;21387;-73
2022/12/19 08:17:45;;;;;;;52.90;21.63;;;;;;;-4.70;81.13;102237.80;1705166;81;21600;-74
2022/12/19 08:20:30;;;;;;;52.15;23.02;;;;;;;-4.64;81.05;102228.88;1703486;81;20949;-75
2022/12/19 08:23:15;;;;;;;53.65;21.50;;;;;;;-4.61;81.06;102231.23;1702962;81;20937;-74
2022/12/19 08:26:10;;;;;;;50.48;17.98;;;;;;;-4.56;81.08;102240.39;1703371;81;20906;-74
2022/12/19 08:28:57;;;;;;;53.33;21.70;;;;;;;-4.51;81.12;102235.28;1701761;81;20909;-74
2022/12/19 08:31:42;;;;;;;49.73;21.45;;;;;;;-4.48;81.14;102234.23;1701217;81;21652;-74
2022/12/19 08:34:27;;;;;;;51.87;21.50;;;;;;;-4.44;81.14;102233.69;1724644;80;21489;-74
2022/12/19 08:37:12;;;;;;;52.45;23.02;;;;;;;-4.39;81.17;102229.84;1723129;80;21339;-74
2022/12/19 08:39:57;;;;;;;44.43;18.50;;;;;;;-4.33;81.18;102235.31;1723234;80;20961;-75
2022/12/19 08:42:42;;;;;;;61.73;23.40;;;;;;;-4.30;81.20;102244.36;1724447;80;20894;-75
2022/12/19 08:45:27;;;;;;;46.23;18.37;;;;;;;-4.25;81.18;102233.33;1727238;80;21203;-75
2022/12/19 08:48:12;;;;;;;57.43;23.55;;;;;;;-4.22;81.15;102234.41;1727638;80;21344;-74
2022/12/19 08:51:01;;;;;;;59.97;23.80;;;;;;;-4.20;81.15;102225.68;1726323;80;21406;-74
2022/12/19 08:53:46;;;;;;;55.60;23.50;;;;;;;-4.18;81.19;102227.92;1726397;80;21040;-74
2022/12/19 08:56:32;;;;;;;;;;;;;;;-4.17;81.11;102231.82;1732628;80;21017;-74
2022/12/19 08:59:16;;;;;;;52.33;20.08;;;;;;;-4.13;81.17;102231.23;1723414;80;20122;-75
2022/12/19 09:02:01;;;;;;;56.60;22.20;;;;;;;-4.10;81.25;102224.25;1723739;80;20941;-74
2022/12/19 09:04:46;;;;;;;55.60;23.25;;;;;;;-4.07;81.30;102213.97;1725721;80;21240;-74
2022/12/19 09:07:33;;;;;;;50.10;22.05;;;;;;;-4.02;81.28;102198.74;1726578;80;20925;-74
2022/12/19 09:10:18;;;;;;;50.20;22.17;;;;;;;-3.98;81.28;102188.45;1727689;80;21415;-74
2022/12/19 09:13:04;;;;;;;52.53;22.05;;;;;;;-3.93;81.30;102174.88;1725725;80;20949;-75
2022/12/19 09:15:49;;;;;;;49.63;22.30;;;;;;;-3.88;81.29;102172.27;1725799;80;20941;-74
2022/12/19 09:18:34;;;;;;;33.47;15.20;;;;;;;-3.85;81.28;102175.00;1722683;80;20906;-74
2022/12/19 09:21:22;;;;;;;47.65;21.45;;;;;;;-3.81;81.28;102173.17;1727794;80;21397;-75
2022/12/19 09:24:08;;;;;;;50.00;21.37;;;;;;;-3.76;81.31;102163.86;1724354;80;21402;-75
2022/12/19 09:26:54;;;;;;;53.05;22.32;;;;;;;-3.70;81.33;102163.39;1724284;80;21319;-74
2022/12/19 09:29:38;;;;;;;47.43;20.70;;;;;;;-3.67;81.25;102168.26;1724720;80;21921;-75
2022/12/19 09:32:23;;;;;;;54.60;22.37;;;;;;;-3.63;81.29;102168.04;1729197;80;21493;-75
2022/12/19 09:35:09;;;;;;;48.95;21.37;;;;;;;-3.61;81.25;102174.07;1725613;80;21243;-75
2022/12/19 09:37:53;;;;;;;50.08;21.25;;;;;;;-3.57;81.26;102170.09;1731096;80;20958;-75
2022/12/19 09:40:59;;;;;;;49.90;22.90;;;;;;;-3.54;81.29;102163.59;1724544;80;21410;-75
2022/12/19 09:44:01;;;;;;;49.98;21.35;;;;;;;-3.49;81.27;102164.77;1722969;80;21378;-74
2022/12/19 09:47:04;;;;;;;56.50;21.65;;;;;;;-3.44;81.30;102152.03;1723110;80;21411;-74
2022/12/19 09:49:51;;;;;;;51.98;22.45;;;;;;;-3.39;81.32;102147.28;1724497;80;20918;-75
2022/12/19 09:52:42;;;;;;;51.42;22.48;;;;;;;-3.32;81.34;102138.05;1725746;80;20913;-75
2022/12/19 09:55:34;;;;;;;60.85;24.30;;;;;;;-3.25;81.36;102132.99;1729020;80;21543;-75
2022/12/19 09:58:32;;;;;;;46.90;21.45;;;;;;;-3.20;81.38;102124.92;1724727;79;21455;-74
2022/12/19 10:01:25;;;;;;;46.48;21.02;;;;;;;-3.15;81.36;102123.95;1720831;80;21537;-74
2022/12/19 10:04:17;;;;;;;53.98;23.10;;;;;;;-3.09;81.36;102121.77;1723501;80;20917;-75
2022/12/19 10:07:00;;;;;;;53.90;23.95;;;;;;;-3.04;81.35;102120.41;1722548;80;21518;-75
2022/12/19 10:09:45;;;;;;;47.25;17.80;;;;;;;-2.98;81.36;102115.73;1722888;80;20941;-74
2022/12/19 10:12:58;;;;;;;46.40;21.12;;;;;;;-2.93;81.21;102118.55;1730235;80;21009;-75
2022/12/19 10:16:10;;;;;;;50.45;21.15;;;;;;;-2.89;81.29;102109.98;1723053;80;20918;-75
2022/12/19 10:19:05;;;;;;;49.15;21.23;;;;;;;-2.83;81.31;102106.56;1725847;80;21505;-75
2022/12/19 10:22:13;;;;;;;49.63;22.40;;;;;;;-2.77;81.32;102099.35;1721124;80;20957;-75
2022/12/19 10:25:27;;;;;;;47.27;20.32;;;;;;;-2.71;81.29;102091.26;1724060;80;21560;-74
2022/12/19 10:28:23;;;;;;;51.83;22.17;;;;;;;-2.65;81.26;102079.36;1724583;80;21025;-74
2022/12/19 10:31:25;;;;;;;41.05;19.65;;;;;;;-2.60;81.30;102076.33;1722394;80;21032;-74
2022/12/19 10:34:22;;;;;;;53.70;20.50;;;;;;;-2.55;81.26;102078.72;1733656;80;20973;-75
2022/12/19 10:37:21;;;;;;;44.05;18.45;;;;;;;-2.49;81.29;102071.88;1740658;80;21013;-75
2022/12/19 10:40:14;;;;;;;42.40;19.45;;;;;;;-2.45;81.32;102056.95;1735741;80;20894;-75
2022/12/19 10:43:19;;;;;;;45.63;19.87;;;;;;;-2.40;81.30;102045.84;1739366;80;21853;-75
2022/12/19 10:46:30;;;;;;;39.95;17.90;;;;;;;-2.33;81.30;102047.95;1703868;80;21383;-74
2022/12/19 10:49:20;;;;;;;41.48;18.55;;;;;;;-2.27;81.31;102044.51;1735283;80;20937;-75
2022/12/19 10:52:08;;;;;;;47.62;20.00;;;;;;;-2.20;81.29;102033.08;1733410;80;20893;-75
2022/12/19 10:54:52;;;;;;;44.60;17.80;;;;;;;-2.14;81.34;102036.84;1731341;80;20941;-75
2022/12/19 10:57:37;;;;;;;47.73;20.40;;;;;;;-2.08;81.35;102032.09;1729684;80;20973;-75
2022/12/19 11:00:22;;;;;;;40.43;19.07;;;;;;;-2.03;81.34;102023.09;1727788;80;20913;-75
2022/12/19 11:03:15;;;;;;;46.05;18.52;;;;;;;-1.97;81.31;102013.70;1727156;80;20902;-75
2022/12/19 11:06:02;;;;;;;39.67;18.50;;;;;;;-1.91;81.31;102010.64;1729973;80;21472;-74
2022/12/19 11:08:47;;;;;;;41.63;18.80;;;;;;;-1.86;81.28;102006.31;1729886;80;20905;-74
2022/12/19 11:11:34;;;;;;;44.45;18.77;;;;;;;-1.80;81.28;101999.45;1730738;80;20960;-74
2022/12/19 11:14:27;;;;;;;44.08;19.30;;;;;;;-1.76;81.28;101989.56;1731984;80;21469;-74
2022/12/19 11:17:35;;;;;;;46.20;20.27;;;;;;;-1.71;81.24;101988.16;1731292;80;20973;-74
2022/12/19 11:20:23;;;;;;;51.73;20.75;;;;;;;-1.68;81.21;101981.98;1731831;80;20906;-75
2022/12/19 11:23:14;;;;;;;44.08;19.15;;;;;;;-1.64;81.16;101983.03;1732446;80;20905;-75
2022/12/19 11:26:05;;;;;;;44.48;19.32;;;;;;;-1.61;81.19;101988.67;1729873;80;21454;-75
2022/12/19 11:28:50;;;;;;;41.95;19.80;;;;;;;-1.60;81.16;101992.55;1729716;80;20909;-75
2022/12/19 11:31:36;;;;;;;46.02;21.33;;;;;;;-1.58;81.16;101983.77;1727558;80;20942;-75
2022/12/19 11:34:23;;;;;;;45.38;19.80;;;;;;;-1.55;81.19;101975.02;1731537;80;21580;-75
2022/12/19 11:37:22;;;;;;;37.10;18.98;;;;;;;-1.51;81.19;101976.55;1722839;80;21036;-75
2022/12/19 11:40:21;;;;;;;43.55;19.90;;;;;;;-1.48;81.19;101970.37;1729796;80;21473;-75
2022/12/19 11:43:27;;;;;;;48.92;20.72;;;;;;;-1.42;81.21;101969.44;1730293;80;20925;-75
2022/12/19 11:47:00;;;;;;;42.25;18.42;;;;;;;-1.38;81.08;101965.40;1732853;80;20901;-75
2022/12/19 11:49:53;;;;;;;42.67;18.57;;;;;;;-1.35;81.09;101964.30;1732386;80;21536;-75
2022/12/19 11:53:28;;;;;;;47.00;18.20;;;;;;;-1.32;81.09;101964.86;1730589;80;21484;-74
2022/12/19 11:56:17;;;;;;;42.50;19.70;;;;;;;-1.34;81.05;101958.44;1732576;80;20968;-75
2022/12/19 11:59:10;;;;;;;41.60;18.75;;;;;;;-1.36;81.00;101941.86;1730881;80;20882;-75
2022/12/19 12:02:09;;;;;;;46.88;19.73;;;;;;;-1.36;81.04;101945.66;1728965;80;20953;-75
2022/12/19 12:05:20;;;;;;;43.28;18.85;;;;;;;-1.35;81.05;101934.72;1730464;80;20974;-75
2022/12/19 12:08:28;;;;;;;44.73;20.48;;;;;;;-1.34;81.06;101925.05;1729480;80;21885;-75
2022/12/19 12:11:36;;;;;;;45.83;20.60;;;;;;;-1.32;81.01;101920.45;1730407;80;21849;-75
2022/12/19 12:14:36;;;;;;;56.98;21.02;;;;;;;-1.30;81.04;101914.67;1728590;80;20937;-75
2022/12/19 12:17:38;;;;;;;53.68;21.57;;;;;;;-1.23;81.10;101909.52;1727925;80;20984;-75
2022/12/19 12:20:57;;;;;;;46.73;20.43;;;;;;;-1.17;81.06;101911.98;1731145;80;20929;-75
2022/12/19 12:24:13;;;;;;;51.00;21.07;;;;;;;-1.13;81.04;101906.28;1728899;80;21386;-74
2022/12/19 12:27:15;;;;;;;40.65;19.48;;;;;;;-1.10;81.04;101886.13;1728268;80;21343;-75
2022/12/19 12:30:10;;;;;;;50.80;20.75;;;;;;;-1.05;81.04;101874.95;1725991;80;20905;-75
2022/12/19 12:33:23;;;;;;;47.62;20.50;;;;;;;-1.03;81.01;101868.25;1729103;80;20952;-75
2022/12/19 12:36:19;;;;;;;49.65;20.72;;;;;;;-1.00;81.01;101860.79;1735577;80;20937;-74
2022/12/19 12:39:22;;;;;;;47.95;20.60;;;;;;;-0.96;80.97;101869.44;1722008;80;20985;-74
2022/12/19 12:42:21;;;;;;;44.80;20.95;;;;;;;-0.94;80.92;101854.75;1733806;80;21339;-75
2022/12/19 12:45:20;;;;;;;50.43;21.15;;;;;;;-0.92;80.98;101843.01;1728743;80;20945;-75
2022/12/19 12:48:39;;;;;;;50.33;21.17;;;;;;;-0.88;81.00;101828.41;1735556;80;21483;-74
2022/12/19 12:51:26;;;;;;;55.55;22.50;;;;;;;-0.86;80.97;101828.08;1732998;80;21285;-75
2022/12/19 12:54:14;;;;;;;45.25;21.23;;;;;;;-0.82;80.95;101822.76;1734204;80;21540;-75
2022/12/19 12:56:58;;;;;;;50.60;21.10;;;;;;;-0.79;80.95;101815.29;1728438;80;21017;-75
2022/12/19 12:59:46;;;;;;;51.63;22.37;;;;;;;-0.76;80.96;101813.77;1733512;80;21491;-75
2022/12/19 13:02:32;;;;;;;46.13;20.57;;;;;;;-0.71;80.96;101811.46;1729382;80;20963;-75